Terminal Aerodrome Forecast
Issued by NWS Twin Cities, MN

Home | Current Version | Previous Version | Graphics & Text | Print | Product List | Glossary On
Versions: 1 2 3 4 5 6 7 8 9 10 11 12 13 14 15 16
000
FTUS43 KMPX 172346
TAFSTC
TAF
KSTC 172346Z 1800/1824 19011G20KT P6SM SKC
     FM180200 18007KT P6SM VCTS SCT040 BKN080CB
     FM180600 18005KT P6SM SCT060 BKN110
     FM181000 12004KT P6SM BKN090
     FM181300 03005KT P6SM BKN060
     FM181800 04005KT P6SM -SHRA VCTS SCT030 BKN050CB
     FM182200 05006KT P6SM SCT080=

USA.gov is the U.S. government's official web portal to all federal, state and local government web resources and services.